Flight Track Log - Related Links

Times and Time Zones

All times are in EDT time to prevent confusion due to time zone crossing. See the SWA2166 flight status page for this flight to view local times or setup timezone preferences in your user account.

Time Position Orientation Groundspeed Altitude Reporting Facility
EDT Latitude Longitude Course Direction KTS MPH feet Rate Location/Type
Sat 06:47:45 AM 33.6667 -84.3500 270° West 212 244 4,600  Level Atlanta TRACON
Sat 06:48:51 AM 33.7167 -84.2833 48° Northeast 260 299 7,200 2,804 Climbing Atlanta TRACON
Sat 06:50:00 AM 33.8001 -84.3299 270° West  Level FlightAware Approximate
Sat 06:50:49 AM 33.8106 -84.3814 270° West 239 275 13,200  Level Atlanta Center
Sat 06:51:49 AM 33.8081 -84.4839 268° West 282 325 15,200 2,150 Climbing Atlanta Center
Sat 06:52:49 AM 33.8264 -84.6089 280° West 331 381 17,500 2,450 Climbing Atlanta Center
Sat 06:53:00 AM 33.8001 -84.7792 270° West  Level FlightAware Approximate
Sat 06:53:49 AM 33.8550 -84.7317 286° West 359 413 20,100  Level Atlanta Center
Sat 06:54:49 AM 33.8875 -84.8647 286° West 392 451 22,800 2,450 Climbing Atlanta Center
Sat 06:55:49 AM 33.9219 -84.9950 288° West 412 474 25,000 1,850 Climbing Atlanta Center
Sat 06:56:49 AM 33.9542 -85.1356 285° West 425 489 26,500 1,550 Climbing Atlanta Center
Sat 06:57:49 AM 33.9883 -85.2789 286° West 437 503 28,100 1,550 Climbing Atlanta Center
Sat 06:58:49 AM 34.0244 -85.4247 287° West 453 521 29,600 1,650 Climbing Atlanta Center
Sat 06:59:49 AM 34.0603 -85.5733 286° West 458 527 31,400 1,700 Climbing Atlanta Center
Sat 07:00:49 AM 34.0939 -85.7219 285° West 458 527 33,000 1,500 Climbing Atlanta Center
Sat 07:01:49 AM 34.1272 -85.8681 285° West 450 518 34,400 1,650 Climbing Atlanta Center
Sat 07:02:49 AM 34.1644 -86.0147 287° West 450 518 36,300 1,800 Climbing Atlanta Center
Sat 07:03:49 AM 34.1975 -86.1586 286° West 455 524 38,000 850 Climbing Atlanta Center
Sat 07:04:49 AM 34.2283 -86.3025 285° West 449 517 38,000  Level Atlanta Center
Sat 07:05:49 AM 34.2614 -86.4392 286° West 443 510 38,000  Level Atlanta Center
Sat 07:08:08 AM 34.3331 -86.7528 286° West 423 487 38,000  Level Memphis Center
Sat 07:09:08 AM 34.3622 -86.8925 284° West 428 493 38,000  Level Memphis Center
Sat 07:10:08 AM 34.3975 -87.0422 286° West 423 487 38,000  Level Memphis Center
Sat 07:11:08 AM 34.4283 -87.1794 285° West 428 493 38,000  Level Memphis Center
Sat 07:12:08 AM 34.4586 -87.3092 286° West 440 506 38,000  Level Memphis Center
Sat 07:13:08 AM 34.4892 -87.4467 285° West 433 498 38,000  Level Memphis Center
Sat 07:14:08 AM 34.5172 -87.5869 284° West 425 489 38,000  Level Memphis Center
Sat 07:15:08 AM 34.5475 -87.7297 284° West 431 496 38,000  Level Memphis Center
Sat 07:16:08 AM 34.5819 -87.8850 285° West 431 496 38,000  Level Memphis Center
Sat 07:17:08 AM 34.6139 -88.0253 286° West 431 496 38,000  Level Memphis Center
Sat 07:18:08 AM 34.6439 -88.1708 284° West 436 502 38,000  Level Memphis Center
Sat 07:19:08 AM 34.6756 -88.3192 285° West 441 507 38,000  Level Memphis Center
Sat 07:20:08 AM 34.7050 -88.4625 284° West 446 513 38,000  Level Memphis Center
Sat 07:21:08 AM 34.7342 -88.6033 284° West 439 505 38,000  Level Memphis Center
Sat 07:22:08 AM 34.7653 -88.7467 285° West 439 505 38,000  Level Memphis Center
Sat 07:23:08 AM 34.7961 -88.8903 285° West 439 505 38,000  Level Memphis Center
Sat 07:24:08 AM 34.8228 -89.0342 283° West 439 505 38,000  Level Memphis Center
Sat 07:25:08 AM 34.8536 -89.1778 285° West 439 505 38,000  Level Memphis Center
Sat 07:26:08 AM 34.8797 -89.3014 284° West 433 498 38,000  Level Memphis Center
Sat 07:27:08 AM 34.9081 -89.4456 284° West 433 498 38,000  Level Memphis Center
Sat 07:28:08 AM 34.9381 -89.5869 285° West 433 498 38,000  Level Memphis Center
Sat 07:29:08 AM 34.9725 -89.7489 285° West 449 517 38,000  Level Memphis Center
Sat 07:30:08 AM 35.0022 -89.8983 284° West 455 524 38,000  Level Memphis Center
Sat 07:31:08 AM 35.0425 -90.0375 290° West 442 509 38,000  Level Memphis Center
Sat 07:32:08 AM 35.0969 -90.1539 300° West 437 503 38,000  Level Memphis Center
Sat 07:33:08 AM 35.1575 -90.2833 300° West 443 510 38,000  Level Memphis Center
Sat 07:34:08 AM 35.2181 -90.4156 299° West 443 510 38,000  Level Memphis Center
Sat 07:35:08 AM 35.2783 -90.5453 300° West 443 510 38,000  Level Memphis Center
Sat 07:36:08 AM 35.3367 -90.6728 299° West 437 503 38,000  Level Memphis Center
Sat 07:37:08 AM 35.3989 -90.7978 301° West 437 503 38,000  Level Memphis Center
Sat 07:38:08 AM 35.4567 -90.9331 298° West 442 509 38,000  Level Memphis Center
Sat 07:39:08 AM 35.5206 -91.0714 300° West 437 503 38,000  Level Memphis Center
Sat 07:40:08 AM 35.5803 -91.2019 299° West 437 503 38,000  Level Memphis Center
Sat 07:41:08 AM 35.6397 -91.3328 299° West 437 503 38,000  Level Memphis Center
Sat 07:42:08 AM 35.6953 -91.4458 301° West 437 503 38,000  Level Memphis Center
Sat 07:43:08 AM 35.7522 -91.5772 298° West 437 503 38,000  Level Memphis Center
Sat 07:44:08 AM 35.8114 -91.7061 300° West 437 503 38,000  Level Memphis Center
Sat 07:45:08 AM 35.8683 -91.8375 298° West 437 503 38,000  Level Memphis Center
Sat 07:46:08 AM 35.9272 -91.9669 299° West 437 503 38,000  Level Memphis Center
Sat 07:47:08 AM 35.9881 -92.1014 299° West 442 509 38,000  Level Memphis Center
Sat 07:48:08 AM 36.0467 -92.2361 298° West 448 516 38,000  Level Memphis Center
Sat 07:49:08 AM 36.1050 -92.3686 299° West 443 510 38,000  Level Memphis Center
Sat 07:50:08 AM 36.1631 -92.5011 299° West 438 504 38,000  Level Memphis Center
Sat 07:51:08 AM 36.2214 -92.6364 298° West 443 510 38,000  Level Memphis Center
Sat 07:52:08 AM 36.2792 -92.7692 298° West 443 510 38,000  Level Memphis Center
Sat 07:53:08 AM 36.3389 -92.9075 298° West 443 510 38,000  Level Memphis Center
Sat 07:55:12 AM 36.4622 -93.1847 299° West 440 506 38,000  Level Kansas City Center
Sat 07:56:13 AM 36.5189 -93.3181 298° West 440 506 38,000  Level Kansas City Center
Sat 07:57:13 AM 36.5758 -93.4494 298° West 436 502 38,000  Level Kansas City Center
Sat 07:58:14 AM 36.6331 -93.5828 298° West 437 503 38,000  Level Kansas City Center
Sat 07:59:15 AM 36.6894 -93.7169 298° West 439 505 38,000  Level Kansas City Center
Sat 08:00:16 AM 36.7447 -93.8478 298° West 442 509 38,000  Level Kansas City Center
Sat 08:01:16 AM 36.8022 -93.9822 298° West 440 506 38,000  Level Kansas City Center
Sat 08:02:17 AM 36.8694 -94.1422 298° West 436 502 38,000  Level Kansas City Center
Sat 08:03:18 AM 36.9256 -94.2756 298° West 435 501 38,000  Level Kansas City Center
Sat 08:04:19 AM 36.9800 -94.4094 297° West 434 499 38,000  Level Kansas City Center
Sat 08:05:19 AM 37.0353 -94.5439 297° West 435 501 38,000  Level Kansas City Center
Sat 08:06:20 AM 37.0900 -94.6772 297° West 434 499 38,000  Level Kansas City Center
Sat 08:07:21 AM 37.1444 -94.8111 297° West 433 498 38,000  Level Kansas City Center
Sat 08:08:21 AM 37.1997 -94.9461 297° West 435 501 38,000  Level Kansas City Center
Sat 08:09:22 AM 37.2544 -95.0806 297° West 434 499 38,000  Level Kansas City Center
Sat 08:10:23 AM 37.3086 -95.2153 297° West 434 499 38,000  Level Kansas City Center
Sat 08:11:24 AM 37.3625 -95.3483 297° West 431 496 38,000  Level Kansas City Center
Sat 08:12:24 AM 37.4164 -95.4839 297° West 432 497 38,000  Level Kansas City Center
Sat 08:13:25 AM 37.4703 -95.6150 297° West 427 491 38,000  Level Kansas City Center
Sat 08:14:26 AM 37.5239 -95.7486 297° West 426 490 38,000  Level Kansas City Center
Sat 08:15:27 AM 37.5761 -95.8897 295° West 437 503 38,000  Level Kansas City Center
Sat 08:16:27 AM 37.6294 -96.0239 297° West 431 496 38,000  Level Kansas City Center
Sat 08:17:28 AM 37.6900 -96.1700 298° West 434 499 38,000  Level Kansas City Center
Sat 08:18:29 AM 37.7425 -96.3081 296° West 436 502 38,000  Level Kansas City Center
Sat 08:19:30 AM 37.7956 -96.4447 296° West 434 499 38,000  Level Kansas City Center
Sat 08:20:31 AM 37.8492 -96.5808 297° West 433 498 38,000  Level Kansas City Center
Sat 08:21:31 AM 37.9019 -96.7175 296° West 434 499 38,000 595 Level Kansas City Center
Sat 08:22:32 AM 37.9547 -96.8542 296° West 434 499 39,200 984 Climbing Kansas City Center
Sat 08:23:33 AM 38.0053 -96.9864 296° West 421 484 40,000 393 Climbing Kansas City Center
Sat 08:24:34 AM 38.0558 -97.1189 296° West 421 484 40,000  Level Kansas City Center
Sat 08:25:35 AM 38.1069 -97.2531 296° West 422 486 40,000  Level Kansas City Center
Sat 08:26:36 AM 38.1675 -97.4142 296° West 425 489 40,000  Level Kansas City Center
Sat 08:27:37 AM 38.2178 -97.5481 296° West 424 488 40,000  Level Kansas City Center
Sat 08:28:37 AM 38.2683 -97.6825 296° West 426 490 40,000  Level Kansas City Center
Sat 08:29:38 AM 38.3189 -97.8164 296° West 424 488 40,000  Level Kansas City Center
Sat 08:30:39 AM 38.3675 -97.9508 295° West 423 487 40,000  Level Kansas City Center
Sat 08:31:40 AM 38.4172 -98.0833 296° West 419 482 40,000  Level Kansas City Center
Sat 08:32:41 AM 38.4658 -98.2161 295° West 415 478 40,000  Level Kansas City Center
Sat 08:33:42 AM 38.5139 -98.3478 295° West 412 474 40,000  Level Kansas City Center
Sat 08:34:43 AM 38.5622 -98.4797 295° West 411 473 40,000  Level Kansas City Center
Sat 08:35:43 AM 38.6106 -98.6092 296° West 406 467 40,000  Level Kansas City Center
Sat 08:36:44 AM 38.6569 -98.7408 294° West 406 467 40,000  Level Kansas City Center
Sat 08:37:45 AM 38.7047 -98.8722 295° West 408 470 40,000  Level Kansas City Center
Sat 08:38:46 AM 38.7611 -99.0311 295° West 409 471 40,000  Level Kansas City Center
Sat 08:39:47 AM 38.8078 -99.1642 294° West 410 472 40,000  Level Kansas City Center
Sat 08:40:48 AM 38.8478 -99.2997 291° West 408 470 40,000  Level Kansas City Center
Sat 08:41:49 AM 38.8500 -99.4486 271° West 417 480 40,000  Level Kansas City Center
Sat 08:42:04 AM 38.8497 -99.4750 269° West 411 473 40,000  Level Denver Center
Sat 08:43:05 AM 38.8517 -99.6428 271° West 420 483 40,000  Level Denver Center
Sat 08:44:06 AM 38.8522 -99.7844 270° West 418 481 40,000  Level Denver Center
Sat 08:45:06 AM 38.8531 -99.9264 270° West 417 480 40,000  Level Denver Center
Sat 08:46:07 AM 38.8544 -100.0919 271° West 418 481 40,000  Level Denver Center
Sat 08:47:08 AM 38.8547 -100.2331 270° West 416 479 40,000  Level Denver Center
Sat 08:48:08 AM 38.8550 -100.3778 270° West 422 486 40,000  Level Denver Center
Sat 08:49:09 AM 38.8547 -100.5392 270° West 411 473 40,000  Level Denver Center
Sat 08:50:10 AM 38.8550 -100.6792 270° West 412 474 40,000  Level Denver Center
Sat 08:51:10 AM 38.8550 -100.8208 270° West 415 478 40,000  Level Denver Center
Sat 08:52:11 AM 38.8547 -100.9836 270° West 412 474 40,000 -492 Level Denver Center
Sat 08:53:12 AM 38.8558 -101.1242 271° West 409 471 39,000 -942 Descending Denver Center
Sat 08:54:12 AM 38.8656 -101.2544 276° West 389 448 38,100 -942 Descending Denver Center
Sat 08:55:13 AM 38.8769 -101.4125 275° West 397 457 37,100 -934 Descending Denver Center
Sat 08:56:14 AM 38.8847 -101.5511 274° West 405 466 36,200 -992 Descending Denver Center
Sat 08:57:14 AM 38.8967 -101.7078 276° West 396 456 35,100 -992 Descending Denver Center
Sat 08:58:15 AM 38.9044 -101.8400 274° West 389 448 34,200 -541 Descending Denver Center
Sat 08:59:16 AM 38.9128 -101.9700 275° West 385 443 34,000 -99 Descending Denver Center
Sat 09:00:16 AM 38.9222 -102.1219 275° West 385 443 34,000  Level Denver Center
Sat 09:01:17 AM 38.9292 -102.2506 274° West 380 437 34,000  Level Denver Center
Sat 09:02:18 AM 38.9381 -102.3800 275° West 380 437 34,000  Level Denver Center
Sat 09:03:19 AM 38.9425 -102.4889 273° West 382 440 34,000  Level Denver Center
Sat 09:04:19 AM 38.9531 -102.6603 275° West 378 435 34,000  Level Denver Center
Sat 09:05:20 AM 38.9617 -102.7958 275° West 376 433 34,000  Level Denver Center
Sat 09:06:21 AM 38.9678 -102.9311 273° West 378 435 34,000  Level Denver Center
Sat 09:07:21 AM 38.9850 -103.0639 280° West 376 433 34,000  Level Denver Center
Sat 09:08:22 AM 39.0397 -103.1797 301° West 375 432 34,000  Level Denver Center
Sat 09:09:23 AM 39.0950 -103.2933 302° West 371 427 34,000 -1,091 Level Denver Center
Sat 09:10:23 AM 39.1514 -103.4111 302° West 382 440 31,800 -2,380 Descending Denver Center
Sat 09:11:24 AM 39.2072 -103.5311 301° West 387 445 29,200 -2,902 Descending Denver Center
Sat 09:12:25 AM 39.2628 -103.6500 301° West 383 441 25,900 -2,876 Descending Denver Center
Sat 09:13:25 AM 39.3194 -103.7706 301° West 390 449 23,400 -2,529 Descending Denver Center
Sat 09:14:26 AM 39.3742 -103.8889 301° West 384 442 20,800 -2,213 Descending Denver Center
Sat 09:15:27 AM 39.4369 -104.0044 305° West 373 429 18,900 -2,132 Descending Denver Center
Sat 09:16:27 AM 39.5000 -104.1081 308° West 367 422 16,500 -1,934 Descending Denver Center
Sat 09:17:28 AM 39.5589 -104.2081 307° West 344 396 15,000 -1,721 Descending Denver Center
Sat 09:18:29 AM 39.6192 -104.3100 308° West 354 407 13,000 -984 Descending Denver Center
Sat 09:19:30 AM 39.6769 -104.4086 307° West 346 398 13,000  Level Denver Center
Sat 09:20:30 AM 39.7314 -104.4969 309° West 308 354 13,000 -298 Level Denver Center
Sat 09:21:31 AM 39.8136 -104.5233 346° North 297 342 12,400 -738 Descending Denver Center
Sat 09:22:32 AM 39.8894 -104.5222 North 277 319 11,500 -900 Descending Denver Center
Sat 09:23:11 AM 39.9333 -104.5167 North 254 292 10,900 -848 Descending Denver TRACON
Sat 09:24:11 AM 40.0000 -104.5167 360° North 242 278 10,100 -800 Descending Denver TRACON
Sat 09:25:11 AM 40.0500 -104.5667 323° Northwest 239 275 9,300 -1,105 Descending Denver TRACON
Sat 09:26:05 AM 40.0333 -104.6333 252° West 230 265 8,000 -1,301 Descending Denver TRACON
Sat 09:26:34 AM 40.0056 -104.6611 217° Southwest 207 238 7,500 -824 Descending Denver Center
Sat 09:27:47 AM 39.9578 -104.6850 201° Southwest 185 213 6,600 -896 Descending Denver Center
Sat 09:28:48 AM 39.9022 -104.6864 181° South 161 185 5,500 -590 Descending Denver Center
Sat 09:29:49 AM 39.8753 -104.6878 182° South 125 144 5,400 -98 Descending Denver Center
Sat 09:31:00 AM 39.8617 -104.6732 North  Level Estimated
Sat 09:38:00 AM 39.8617 -104.6732 North  Level Estimated
Sat 09:39:00 AM 39.8617 -104.6732 North  Level Estimated
Sat 09:40:00 AM 39.8617 -104.6732 North  Level Estimated

Login

Don't have an account? Register now (free) for customized features, flight alerts, and more!